Terminal Aerodrome Forecast
Issued by NWS

Home | Current Version | Previous Version | Text Only | Print | Product List | Glossary On
Versions: 1 2 3 4 5 6 7 8 9 10 11 12 13 14 15 16
000
FTUS43 KPAH 252000 AAB
TAFCGI
TAF AMD
KCGI 252056Z 2521/2618 27008KT 5SM -RA BR BKN028 OVC050
     FM260100 34014G23KT P6SM SCT015 OVC025
      TEMPO 2601/2603 BKN015=

USA.gov is the U.S. government's official web portal to all federal, state and local government web resources and services.